TimeEDT,TemperatureF,Dew PointF,Humidity,Sea Level PressureIn,VisibilityMPH,Wind Direction,Wind SpeedMPH,Gust SpeedMPH,PrecipitationIn,Events,Conditions,WindDirDegrees,DateUTC
12:53 AM,79.0,64.9,62,30.07,10.0,NE,8.1,-,N/A,,Clear,50,2011-10-04 04:53:00
1:53 AM,79.0,64.9,62,30.06,10.0,ENE,12.7,-,N/A,,Clear,60,2011-10-04 05:53:00
2:53 AM,79.0,64.9,62,30.06,10.0,ENE,9.2,-,N/A,,Partly Cloudy,60,2011-10-04 06:53:00
3:53 AM,79.0,64.0,60,30.05,10.0,NE,10.4,-,N/A,,Clear,50,2011-10-04 07:53:00
4:53 AM,79.0,64.9,62,30.05,10.0,NE,10.4,-,N/A,,Clear,50,2011-10-04 08:53:00
5:53 AM,79.0,64.0,60,30.06,10.0,NNE,10.4,-,N/A,,Clear,30,2011-10-04 09:53:00
7:53 AM,79.0,64.0,60,30.08,10.0,NE,12.7,-,N/A,,Clear,40,2011-10-04 11:53:00
8:53 AM,80.1,64.0,58,30.10,10.0,ENE,13.8,21.9,N/A,,Clear,60,2011-10-04 12:53:00
9:53 AM,82.0,63.0,52,30.12,10.0,NE,12.7,-,N/A,,Clear,50,2011-10-04 13:53:00
10:53 AM,82.9,62.1,49,30.13,10.0,NE,15.0,-,N/A,,Partly Cloudy,40,2011-10-04 14:53:00
11:53 AM,84.0,62.1,47,30.13,10.0,ENE,12.7,-,N/A,,Scattered Clouds,60,2011-10-04 15:53:00
12:53 PM,84.0,63.0,49,30.11,10.0,NE,13.8,-,N/A,,Scattered Clouds,50,2011-10-04 16:53:00
1:53 PM,84.9,62.1,46,30.09,10.0,ENE,13.8,19.6,N/A,,Clear,60,2011-10-04 17:53:00
2:53 PM,84.9,62.1,46,30.07,10.0,NE,13.8,-,N/A,,Scattered Clouds,50,2011-10-04 18:53:00
3:53 PM,82.9,62.1,49,30.06,10.0,ENE,10.4,-,N/A,,Partly Cloudy,60,2011-10-04 19:53:00
4:53 PM,82.9,63.0,51,30.05,10.0,ENE,12.7,-,N/A,,Partly Cloudy,60,2011-10-04 20:53:00
6:53 PM,80.1,62.1,54,30.05,10.0,NE,10.4,-,N/A,,Partly Cloudy,40,2011-10-04 22:53:00
8:53 PM,80.1,63.0,56,30.07,10.0,NE,12.7,-,N/A,,Scattered Clouds,50,2011-10-05 00:53:00
9:53 PM,80.1,62.1,54,30.09,10.0,NE,13.8,-,N/A,,Partly Cloudy,50,2011-10-05 01:53:00
10:53 PM,80.1,63.0,56,30.09,10.0,NE,11.5,17.3,N/A,,Partly Cloudy,50,2011-10-05 02:53:00
11:53 PM,79.0,61.0,54,30.07,10.0,ENE,10.4,-,N/A,,Clear,60,2011-10-05 03:53:00